createdAt,value
2019-03-15T00:01:56.174Z,28.90
2019-03-15T00:08:02.488Z,27.67
2019-03-15T00:10:36.089Z,31.13
2019-03-15T00:13:09.756Z,31.60
2019-03-15T00:15:43.493Z,32.10
2019-03-15T00:18:17.204Z,29.17
2019-03-15T00:20:50.878Z,28.67
2019-03-15T00:23:24.655Z,28.67
2019-03-15T00:25:58.223Z,32.63
2019-03-15T00:28:31.915Z,29.03
2019-03-15T00:31:06.642Z,30.53
2019-03-15T00:33:40.726Z,33.90
2019-03-15T00:36:14.350Z,32.00
2019-03-15T00:38:48.098Z,34.37
2019-03-15T00:41:21.809Z,33.93
2019-03-15T00:43:55.816Z,28.13
2019-03-15T00:46:29.492Z,33.10
2019-03-15T00:49:03.162Z,32.63
2019-03-15T00:51:36.769Z,32.33
2019-03-15T00:54:10.476Z,33.53
2019-03-15T00:56:45.562Z,30.20
2019-03-15T00:59:19.203Z,30.67
2019-03-15T01:01:52.807Z,32.17
2019-03-15T01:04:26.474Z,35.27
2019-03-15T01:10:33.046Z,33.67
2019-03-15T01:13:06.663Z,37.87
2019-03-15T01:15:40.313Z,37.63
2019-03-15T01:18:13.981Z,33.10
2019-03-15T01:20:47.757Z,31.13
2019-03-15T01:23:21.365Z,32.33
2019-03-15T01:25:55.018Z,33.87
2019-03-15T01:28:28.616Z,34.80
2019-03-15T01:31:02.282Z,30.80
2019-03-15T01:33:35.957Z,30.37
2019-03-15T01:36:58.843Z,34.20
2019-03-15T01:39:35.614Z,32.50
2019-03-15T01:42:09.219Z,36.20
2019-03-15T01:44:42.823Z,33.83
2019-03-15T01:47:16.575Z,37.13
2019-03-15T01:53:27.317Z,36.40
2019-03-15T01:56:00.898Z,34.97
2019-03-15T01:58:34.819Z,37.97
2019-03-15T02:01:08.510Z,37.27
2019-03-15T02:03:42.112Z,36.60
2019-03-15T02:06:15.820Z,38.03
2019-03-15T02:08:49.558Z,35.97
2019-03-15T02:11:23.147Z,40.17
2019-03-15T02:13:56.786Z,39.70
2019-03-15T02:16:30.391Z,38.17
2019-03-15T02:19:04.155Z,38.00
2019-03-15T02:21:37.806Z,38.87
2019-03-15T02:24:11.505Z,34.90
2019-03-15T02:26:45.128Z,38.50
2019-03-15T02:29:18.732Z,38.47
2019-03-15T02:31:52.411Z,42.63
2019-03-15T02:34:27.317Z,46.20
2019-03-15T02:37:01.212Z,45.60
2019-03-15T02:39:34.955Z,44.23
2019-03-15T02:42:08.583Z,49.13
2019-03-15T02:44:42.160Z,48.47
2019-03-15T02:47:15.790Z,50.77
2019-03-15T02:49:49.424Z,47.03
2019-03-15T02:55:55.717Z,48.57
2019-03-15T02:58:29.320Z,50.80
2019-03-15T03:01:03.070Z,49.17
2019-03-15T03:03:36.766Z,50.53
2019-03-15T03:06:10.361Z,52.13
2019-03-15T03:08:43.965Z,51.23
2019-03-15T03:11:17.603Z,56.50
2019-03-15T03:13:51.281Z,53.33
2019-03-15T03:16:24.873Z,52.77
2019-03-15T03:18:58.509Z,50.13
2019-03-15T03:22:18.367Z,53.10
2019-03-15T03:24:51.968Z,48.23
2019-03-15T03:27:25.799Z,53.57
2019-03-15T03:29:59.380Z,50.83
2019-03-15T03:32:32.979Z,53.53
2019-03-15T03:35:09.453Z,55.20
2019-03-15T03:37:42.490Z,56.47
2019-03-15T03:40:19.915Z,52.77
2019-03-15T03:42:51.505Z,56.47
2019-03-15T03:45:27.460Z,60.87
2019-03-15T03:48:02.502Z,54.77
2019-03-15T03:50:51.665Z,57.83
2019-03-15T03:53:25.643Z,53.57
2019-03-15T03:56:02.255Z,56.90
2019-03-15T03:58:35.958Z,60.20
2019-03-15T04:01:09.619Z,56.67
2019-03-15T04:03:43.321Z,58.93
2019-03-15T04:06:17.069Z,55.87
2019-03-15T04:08:50.712Z,58.27
2019-03-15T04:11:24.321Z,59.10
2019-03-15T04:13:58.127Z,63.13
2019-03-15T04:16:31.719Z,56.20
2019-03-15T04:19:05.417Z,61.37
2019-03-15T04:25:10.431Z,55.63
2019-03-15T04:27:44.044Z,65.57
2019-03-15T04:30:17.673Z,61.10
2019-03-15T04:32:51.273Z,58.20
2019-03-15T04:35:24.986Z,59.87
2019-03-15T04:41:39.801Z,64.53
2019-03-15T04:44:13.968Z,62.07
2019-03-15T04:46:47.630Z,58.77
2019-03-15T04:49:21.342Z,58.27
2019-03-15T04:55:26.573Z,60.47
2019-03-15T04:58:00.176Z,53.57
2019-03-15T05:00:33.871Z,62.50
2019-03-15T05:03:07.558Z,58.00
2019-03-15T05:09:13.072Z,60.87
2019-03-15T05:11:46.675Z,59.10
2019-03-15T05:14:20.290Z,58.37
2019-03-15T05:16:53.936Z,60.53
2019-03-15T05:19:27.553Z,61.87
2019-03-15T05:22:14.598Z,64.77
2019-03-15T05:24:48.234Z,64.33
2019-03-15T05:27:21.832Z,66.07
2019-03-15T05:29:55.458Z,61.40
2019-03-15T05:32:31.049Z,64.13
2019-03-15T05:35:05.385Z,59.57
2019-03-15T05:37:39.045Z,62.07
2019-03-15T05:40:12.884Z,63.33
2019-03-15T05:42:46.583Z,61.83
2019-03-15T05:45:20.522Z,64.57
2019-03-15T05:47:54.122Z,63.77
2019-03-15T05:50:27.776Z,61.67
2019-03-15T05:53:01.391Z,60.63
2019-03-15T05:55:35.010Z,64.37
2019-03-15T05:58:08.680Z,56.40
2019-03-15T06:00:42.298Z,63.80
2019-03-15T06:03:16.114Z,62.33
2019-03-15T06:05:49.778Z,57.37
2019-03-15T06:11:50.586Z,61.37
2019-03-15T06:14:24.215Z,54.03
2019-03-15T06:16:57.898Z,50.60
2019-03-15T06:19:31.514Z,55.60
2019-03-15T06:25:42.694Z,50.13
2019-03-15T06:28:16.318Z,55.07
2019-03-15T06:30:49.918Z,49.17
2019-03-15T06:33:23.512Z,45.83
2019-03-15T06:35:57.311Z,43.47
2019-03-15T06:38:43.348Z,46.27
2019-03-15T06:41:17.010Z,51.37
2019-03-15T06:43:52.298Z,46.87
2019-03-15T06:46:25.913Z,42.53
2019-03-15T06:48:59.524Z,43.33
2019-03-15T06:55:07.720Z,42.60
2019-03-15T06:57:41.286Z,41.73
2019-03-15T07:00:16.097Z,40.33
2019-03-15T07:02:49.749Z,48.37
2019-03-15T07:05:24.573Z,41.93
2019-03-15T07:07:58.172Z,46.07
2019-03-15T07:10:31.899Z,42.63
2019-03-15T07:13:05.628Z,41.87
2019-03-15T07:15:39.381Z,37.83
2019-03-15T07:18:13.330Z,38.87
2019-03-15T07:20:46.974Z,36.70
2019-03-15T07:23:20.558Z,31.87
2019-03-15T07:25:54.166Z,27.23
2019-03-15T07:28:27.761Z,30.43
2019-03-15T07:31:01.452Z,28.43
2019-03-15T07:33:35.043Z,26.93
2019-03-15T07:36:08.776Z,23.47
2019-03-15T07:42:14.253Z,22.63
2019-03-15T07:44:49.164Z,21.03
2019-03-15T07:47:22.872Z,21.43
2019-03-15T07:49:56.464Z,18.97
2019-03-15T07:56:02.853Z,18.90
2019-03-15T07:58:36.440Z,20.73
2019-03-15T08:01:10.114Z,16.83
2019-03-15T08:03:43.822Z,15.60
2019-03-15T08:06:17.442Z,15.67
2019-03-15T08:09:42.774Z,24.10
2019-03-15T08:12:16.418Z,19.20
2019-03-15T08:14:50.082Z,19.53
2019-03-15T08:17:23.698Z,18.67
2019-03-15T08:19:57.278Z,19.57
2019-03-15T08:26:02.927Z,13.80
2019-03-15T08:28:36.518Z,13.67
2019-03-15T08:31:10.226Z,6.37
2019-03-15T08:33:43.891Z,13.80
2019-03-15T08:36:20.122Z,10.43
2019-03-15T08:38:52.960Z,9.07
2019-03-15T08:41:26.573Z,6.33
2019-03-15T08:44:00.213Z,7.23
2019-03-15T08:46:34.736Z,7.53
2019-03-15T08:49:08.364Z,5.57
2019-03-15T08:51:42.040Z,5.83
2019-03-15T08:54:17.127Z,5.27
2019-03-15T08:56:50.749Z,6.13
2019-03-15T08:59:24.360Z,6.07
2019-03-15T09:01:58.086Z,4.50
2019-03-15T09:04:31.674Z,5.17
2019-03-15T09:11:15.272Z,4.83
2019-03-15T09:13:49.396Z,3.47
2019-03-15T09:16:23.376Z,5.57
2019-03-15T09:18:57.026Z,4.73
2019-03-15T09:21:30.665Z,2.87
2019-03-15T09:27:36.378Z,4.53
2019-03-15T09:30:23.086Z,5.27
2019-03-15T09:32:49.396Z,4.00
2019-03-15T09:35:23.182Z,5.17
2019-03-15T09:41:33.413Z,5.40
2019-03-15T09:44:04.289Z,4.90
2019-03-15T09:46:37.918Z,3.60
2019-03-15T09:49:11.973Z,4.77
2019-03-15T09:51:45.606Z,4.17
2019-03-15T09:54:19.238Z,4.67
2019-03-15T09:56:52.826Z,6.67
2019-03-15T09:59:26.583Z,4.53
2019-03-15T10:02:00.239Z,5.07
2019-03-15T10:04:36.186Z,4.13
2019-03-15T10:07:09.965Z,4.43
2019-03-15T10:09:46.002Z,5.80
2019-03-15T10:12:18.899Z,5.17
2019-03-15T10:14:52.477Z,6.40
2019-03-15T10:17:26.539Z,6.43
2019-03-15T10:20:00.457Z,7.40
2019-03-15T10:23:05.986Z,5.90
2019-03-15T10:25:46.354Z,6.87
2019-03-15T10:28:12.215Z,6.40
2019-03-15T10:30:47.387Z,5.73
2019-03-15T10:33:21.036Z,6.77
2019-03-15T10:35:54.672Z,6.27
2019-03-15T10:38:28.321Z,5.23
2019-03-15T10:41:01.900Z,8.07
2019-03-15T10:43:35.561Z,5.17
2019-03-15T10:46:09.246Z,8.37
2019-03-15T10:48:42.908Z,6.47
2019-03-15T10:51:16.851Z,8.03
2019-03-15T10:57:22.909Z,3.43
2019-03-15T10:59:59.758Z,3.93
2019-03-15T11:02:33.505Z,4.43
2019-03-15T11:05:09.131Z,4.67
2019-03-15T11:11:24.032Z,1.77
2019-03-15T11:13:59.307Z,4.20
2019-03-15T11:16:33.035Z,3.73
2019-03-15T11:19:06.767Z,4.00
2019-03-15T11:21:40.477Z,4.73
2019-03-15T11:27:45.917Z,5.10
2019-03-15T11:30:19.995Z,4.97
2019-03-15T11:32:53.647Z,3.13
2019-03-15T11:35:27.803Z,2.07
2019-03-15T11:41:34.164Z,3.13
2019-03-15T11:44:07.836Z,2.70
2019-03-15T11:46:41.465Z,3.03
2019-03-15T11:49:15.037Z,3.43
2019-03-15T11:51:48.664Z,2.53
2019-03-15T11:54:22.341Z,3.93
2019-03-15T11:56:56.354Z,3.65
2019-03-15T11:59:30.018Z,3.13
2019-03-15T12:02:04.523Z,2.67
2019-03-15T12:04:38.266Z,1.87
2019-03-15T12:07:11.932Z,3.57
2019-03-15T12:09:45.532Z,1.57
2019-03-15T12:12:21.710Z,2.07
2019-03-15T12:14:54.657Z,2.43
2019-03-15T12:17:28.345Z,2.33
2019-03-15T12:20:02.048Z,2.27
2019-03-15T12:22:37.315Z,3.93
2019-03-15T12:25:12.763Z,2.70
2019-03-15T12:27:46.541Z,3.63
2019-03-15T12:30:20.288Z,3.83
2019-03-15T12:32:54.051Z,2.53
2019-03-15T12:35:28.026Z,3.07
2019-03-15T12:41:51.896Z,3.97
2019-03-15T12:44:25.540Z,3.40
2019-03-15T12:46:59.182Z,4.97
2019-03-15T12:49:32.850Z,4.63
2019-03-15T12:52:06.628Z,3.03
2019-03-15T12:58:21.186Z,3.23
2019-03-15T13:00:54.831Z,3.33
2019-03-15T13:03:28.454Z,3.87
2019-03-15T13:06:02.099Z,3.23
2019-03-15T13:08:35.747Z,4.20
2019-03-15T13:11:09.564Z,2.30
2019-03-15T13:13:44.498Z,4.83
2019-03-15T13:16:18.122Z,5.23
2019-03-15T13:18:53.327Z,3.57
2019-03-15T13:21:26.949Z,4.10
2019-03-15T13:24:50.229Z,4.23
2019-03-15T13:27:23.852Z,3.33
2019-03-15T13:29:57.431Z,4.50
2019-03-15T13:32:31.136Z,3.43
2019-03-15T13:35:06.825Z,4.07
2019-03-15T13:37:43.129Z,4.50
2019-03-15T13:40:17.931Z,2.97
2019-03-15T13:42:51.568Z,4.37
2019-03-15T13:45:25.378Z,3.83
2019-03-15T13:47:58.976Z,4.10
2019-03-15T13:50:32.578Z,6.87
2019-03-15T13:53:06.162Z,3.73
2019-03-15T13:55:39.784Z,4.03
2019-03-15T13:58:14.531Z,3.77
2019-03-15T14:00:48.182Z,5.53
2019-03-15T14:03:22.092Z,4.33
2019-03-15T14:05:56.070Z,4.07
2019-03-15T14:12:15.568Z,3.80
2019-03-15T14:14:49.253Z,6.57
2019-03-15T14:17:22.912Z,4.50
2019-03-15T14:19:56.602Z,3.23
2019-03-15T14:22:30.866Z,3.97
2019-03-15T14:28:32.204Z,3.87
2019-03-15T14:31:05.864Z,4.87
2019-03-15T14:33:39.630Z,4.40
2019-03-15T14:36:13.402Z,3.77
2019-03-15T14:42:14.572Z,2.40
2019-03-15T14:44:48.808Z,6.37
2019-03-15T14:47:22.681Z,3.90
2019-03-15T14:49:56.258Z,3.30
2019-03-15T14:52:29.903Z,3.93
2019-03-15T14:55:10.951Z,4.03
2019-03-15T14:57:52.235Z,3.10
2019-03-15T15:00:20.700Z,3.10
2019-03-15T15:02:54.413Z,2.80
2019-03-15T15:05:28.074Z,5.13
2019-03-15T15:08:01.721Z,4.10
2019-03-15T15:10:35.322Z,7.23
2019-03-15T15:13:09.036Z,3.00
2019-03-15T15:15:42.737Z,4.53
2019-03-15T15:18:16.424Z,4.50
2019-03-15T15:20:50.032Z,5.17
2019-03-15T15:23:23.936Z,5.40
2019-03-15T15:25:57.595Z,6.73
2019-03-15T15:28:31.383Z,14.60
2019-03-15T15:31:05.186Z,8.77
2019-03-15T15:33:39.070Z,7.70
2019-03-15T15:36:12.962Z,9.33
2019-03-15T15:38:46.716Z,9.77
2019-03-15T15:44:54.606Z,12.93
2019-03-15T15:47:28.750Z,18.27
2019-03-15T15:50:02.589Z,10.40
2019-03-15T15:52:36.416Z,10.83
2019-03-15T15:55:12.145Z,18.13
2019-03-15T15:57:46.304Z,15.73
2019-03-15T16:00:20.328Z,8.37
2019-03-15T16:02:55.724Z,9.10
2019-03-15T16:05:29.328Z,7.00
2019-03-15T16:08:02.940Z,5.83
2019-03-15T16:11:44.503Z,7.13
2019-03-15T16:14:19.904Z,3.30
2019-03-15T16:16:53.573Z,8.37
2019-03-15T16:19:30.115Z,6.80
2019-03-15T16:22:04.296Z,4.97
2019-03-15T16:28:30.928Z,7.77
2019-03-15T16:30:55.845Z,5.97
2019-03-15T16:33:29.616Z,6.27
2019-03-15T16:36:03.427Z,7.60
2019-03-15T16:38:37.128Z,4.63
2019-03-15T16:41:15.325Z,6.50
2019-03-15T16:43:50.910Z,11.60
2019-03-15T16:46:25.128Z,14.03
2019-03-15T16:48:59.036Z,15.47
2019-03-15T16:51:32.719Z,16.10
2019-03-15T16:54:09.245Z,15.00
2019-03-15T16:56:42.914Z,9.83
2019-03-15T16:59:17.696Z,9.50
2019-03-15T17:01:54.199Z,8.33
2019-03-15T17:04:26.920Z,9.23
2019-03-15T17:07:00.992Z,10.10
2019-03-15T17:13:25.296Z,8.37
2019-03-15T17:16:00.848Z,6.80
2019-03-15T17:18:34.524Z,7.97
2019-03-15T17:21:08.277Z,7.87
2019-03-15T17:23:41.976Z,11.90
2019-03-15T17:29:49.324Z,7.97
2019-03-15T17:32:23.372Z,9.90
2019-03-15T17:34:57.085Z,11.60
2019-03-15T17:37:30.940Z,13.63
2019-03-15T17:43:45.723Z,13.93
2019-03-15T17:46:19.424Z,9.73
2019-03-15T17:48:53.098Z,11.57
2019-03-15T17:51:26.753Z,10.63
2019-03-15T17:54:00.677Z,13.70
2019-03-15T17:56:35.918Z,12.57
2019-03-15T17:59:12.572Z,18.47
2019-03-15T18:01:47.966Z,12.57
2019-03-15T18:04:21.605Z,14.20
2019-03-15T18:06:55.373Z,11.77
2019-03-15T18:09:29.153Z,16.93
2019-03-15T18:12:05.752Z,12.23
2019-03-15T18:14:43.549Z,15.17
2019-03-15T18:17:17.224Z,20.07
2019-03-15T18:19:50.967Z,17.07
2019-03-15T18:22:24.713Z,20.13
2019-03-15T18:27:43.590Z,21.80
2019-03-15T18:30:17.730Z,18.90
2019-03-15T18:32:51.482Z,21.57
2019-03-15T18:35:33.716Z,24.53
2019-03-15T18:38:00.811Z,17.77
2019-03-15T18:44:25.818Z,22.83
2019-03-15T18:46:59.758Z,20.37
2019-03-15T18:49:33.492Z,16.27
2019-03-15T18:52:09.766Z,22.03
2019-03-15T18:54:45.643Z,21.73
2019-03-15T19:00:55.009Z,18.70
2019-03-15T19:03:28.712Z,20.97
2019-03-15T19:06:02.658Z,20.53
2019-03-15T19:08:36.208Z,18.03
2019-03-15T19:14:42.688Z,17.13
2019-03-15T19:17:16.364Z,16.43
2019-03-15T19:19:50.158Z,11.17
2019-03-15T19:22:23.801Z,15.40
2019-03-15T19:24:57.424Z,16.80
2019-03-15T19:27:33.612Z,14.80
2019-03-15T19:30:18.557Z,15.60
2019-03-15T19:32:52.377Z,12.37
2019-03-15T19:35:26.377Z,11.87
2019-03-15T19:38:01.708Z,11.40
2019-03-15T19:41:15.594Z,14.60
2019-03-15T19:43:49.567Z,19.50
2019-03-15T19:46:24.530Z,12.63
2019-03-15T19:48:58.125Z,13.53
2019-03-15T19:51:32.475Z,16.67
2019-03-15T19:54:07.420Z,12.67
2019-03-15T19:56:41.035Z,9.70
2019-03-15T19:59:16.197Z,7.27
2019-03-15T20:01:49.824Z,6.00
2019-03-15T20:04:23.529Z,8.33
2019-03-15T20:06:57.196Z,11.87
2019-03-15T20:09:30.857Z,8.97
2019-03-15T20:15:36.461Z,6.87
2019-03-15T20:18:10.061Z,4.33
2019-03-15T20:20:43.766Z,5.87
2019-03-15T20:23:17.454Z,5.60
2019-03-15T20:29:22.625Z,5.53
2019-03-15T20:31:56.254Z,6.83
2019-03-15T20:34:29.853Z,8.60
2019-03-15T20:37:03.661Z,6.00
2019-03-15T20:39:37.254Z,11.53
2019-03-15T20:45:38.336Z,6.53
2019-03-15T20:48:12.087Z,7.43
2019-03-15T20:50:47.016Z,9.13
2019-03-15T20:53:21.070Z,7.33
2019-03-15T20:55:54.963Z,6.73
2019-03-15T20:58:28.707Z,7.17
2019-03-15T21:01:02.368Z,8.80
2019-03-15T21:03:36.095Z,8.13
2019-03-15T21:06:10.367Z,8.93
2019-03-15T21:08:46.033Z,6.97
2019-03-15T21:12:02.077Z,10.20
2019-03-15T21:14:35.723Z,12.53
2019-03-15T21:17:09.371Z,11.50
2019-03-15T21:19:43.050Z,9.97
2019-03-15T21:22:17.201Z,10.50
2019-03-15T21:24:50.795Z,9.17
2019-03-15T21:27:24.405Z,8.23
2019-03-15T21:29:57.987Z,6.03
2019-03-15T21:32:31.659Z,9.87
2019-03-15T21:35:08.087Z,8.87
2019-03-15T21:37:43.320Z,7.20
2019-03-15T21:40:18.341Z,5.80
2019-03-15T21:46:24.439Z,8.57
2019-03-15T21:48:57.978Z,6.40
2019-03-15T21:51:32.892Z,10.00
2019-03-15T21:54:06.773Z,9.30
2019-03-15T22:00:20.457Z,10.87
2019-03-15T22:02:54.223Z,10.20
2019-03-15T22:05:27.949Z,13.87
2019-03-15T22:08:03.204Z,9.50
2019-03-15T22:10:36.815Z,13.80
2019-03-15T22:16:38.379Z,13.70
2019-03-15T22:19:12.081Z,10.17
2019-03-15T22:21:45.967Z,14.43
2019-03-15T22:24:19.517Z,9.70
2019-03-15T22:30:22.130Z,10.03
2019-03-15T22:32:55.721Z,6.50
2019-03-15T22:35:29.473Z,10.17
2019-03-15T22:38:05.633Z,8.37
2019-03-15T22:40:40.904Z,15.57
2019-03-15T22:43:23.777Z,10.83
2019-03-15T22:45:57.687Z,8.97
2019-03-15T22:48:31.292Z,6.90
2019-03-15T22:51:06.214Z,10.87
2019-03-15T22:53:39.898Z,7.10
2019-03-15T22:56:13.542Z,6.33
2019-03-15T22:58:47.306Z,10.10
2019-03-15T23:01:30.142Z,9.53
2019-03-15T23:03:56.396Z,7.63
2019-03-15T23:06:31.271Z,9.70
2019-03-15T23:09:07.042Z,4.70
2019-03-15T23:11:53.036Z,5.73
2019-03-15T23:14:26.715Z,9.07
2019-03-15T23:17:00.326Z,8.10
2019-03-15T23:19:34.006Z,6.43
2019-03-15T23:22:07.729Z,9.57
2019-03-15T23:24:41.436Z,8.00
2019-03-15T23:31:02.062Z,7.53
2019-03-15T23:33:35.655Z,9.73
2019-03-15T23:36:09.439Z,4.00
2019-03-15T23:38:43.202Z,5.63
2019-03-15T23:41:16.824Z,4.63
2019-03-15T23:47:22.591Z,3.40
2019-03-15T23:49:56.229Z,2.63
2019-03-15T23:52:29.945Z,2.57
2019-03-15T23:55:03.986Z,1.47
2019-03-15T23:57:48.126Z,1.07
